Time;durP1;ratioP1;P1;durP2;ratioP2;P2;SDS_P1;SDS_P2;PMS_P1;PMS_P2;Temp;Humidity;BMP_temperature;BMP_pressure;BME280_temperature;BME280_humidity;BME280_pressure;Samples;Min_cycle;Max_cycle;Signal;HPM_P1;HPM_P2
2022/06/06 00:02:18;;;;;;;3.07;2.60;;;15.50;99.90;;;14.51;95.48;98034.81;4979516;28;21093;-73
2022/06/06 00:04:45;;;;;;;4.30;2.47;;;15.50;99.90;;;14.52;95.38;98039.19;5025287;28;20464;-73
2022/06/06 00:07:12;;;;;;;2.73;2.50;;;15.40;99.90;;;14.15;95.79;97972.41;5015724;28;20464;-74
2022/06/06 00:09:39;;;;;;;3.13;2.83;;;15.40;99.90;;;14.43;95.71;98023.25;4993774;28;20456;-72
2022/06/06 00:12:09;;;;;;;4.90;2.47;;;15.40;99.90;;;14.33;96.65;98022.22;4977035;28;21004;-74
2022/06/06 00:14:36;;;;;;;2.80;2.60;;;15.30;99.90;;;14.31;96.16;98026.00;4974135;28;20484;-72
2022/06/06 00:17:05;;;;;;;2.47;2.27;;;15.20;99.90;;;14.29;96.36;98030.00;4996772;28;20496;-73
2022/06/06 00:19:32;;;;;;;2.80;2.60;;;15.20;99.90;;;14.36;95.65;98022.56;4983284;28;20464;-73
2022/06/06 00:21:59;;;;;;;2.63;2.33;;;15.30;99.90;;;14.35;96.26;98023.63;4988792;28;20506;-71
2022/06/06 00:24:27;;;;;;;4.93;2.67;;;15.30;99.90;;;14.29;96.14;98021.84;4978451;28;20525;-73
2022/06/06 00:26:54;;;;;;;3.10;2.80;;;15.30;99.90;;;14.30;96.84;98018.91;5000431;28;20445;-72
2022/06/06 00:29:23;;;;;;;6.70;2.60;;;15.20;99.90;;;14.25;96.40;98026.13;4978028;28;20493;-72
2022/06/06 00:34:51;;;;;;;3.50;2.70;;;15.20;99.90;;;14.27;96.27;98024.00;4978739;28;20479;-72
2022/06/06 00:37:25;;;;;;;3.27;3.00;;;15.20;99.90;;;14.32;96.20;98015.94;5084061;27;20958;-72
2022/06/06 00:39:53;;;;;;;3.03;2.83;;;15.30;99.90;;;14.27;96.61;98013.13;5052708;28;20588;-72
2022/06/06 00:42:25;;;;;;;3.97;3.60;;;15.30;99.90;;;14.66;94.25;98005.22;4976607;28;22314;-72
2022/06/06 00:45:36;;;;;;;3.43;3.23;;;15.50;99.90;;;14.80;93.78;98008.50;4973910;28;20454;-72
2022/06/06 00:48:13;;;;;;;3.27;3.07;;;15.70;99.90;;;14.83;93.19;98009.91;4988706;28;20463;-71
2022/06/06 00:50:59;;;;;;;3.20;2.90;;;15.70;99.90;;;14.88;91.33;97996.38;4980677;28;20473;-72
2022/06/06 00:53:38;;;;;;;4.10;3.40;;;15.80;99.90;;;14.86;91.93;98009.41;4975556;28;20551;-72
2022/06/06 00:56:15;;;;;;;5.20;3.30;;;15.80;99.50;;;14.76;92.37;98004.63;4995635;28;21027;-73
2022/06/06 00:58:43;;;;;;;4.20;3.07;;;15.70;99.90;;;14.56;93.18;97999.56;4977430;28;20546;-71
2022/06/06 01:01:12;;;;;;;3.57;3.27;;;15.60;99.90;;;14.56;93.60;98002.28;4978529;28;20645;-71
2022/06/06 01:03:41;;;;;;;3.80;3.33;;;15.50;99.90;;;14.60;94.03;98006.16;4981279;28;20484;-73
2022/06/06 01:06:12;;;;;;;5.67;3.50;;;15.50;99.90;;;14.93;91.58;97993.75;4977596;28;20464;-73
2022/06/06 01:08:43;;;;;;;3.40;3.20;;;15.80;99.90;;;15.05;90.48;98001.03;4990850;28;20577;-73
2022/06/06 01:11:10;;;;;;;4.77;3.30;;;15.90;98.90;;;14.97;90.93;98004.97;4979717;28;20913;-73
2022/06/06 01:13:42;;;;;;;3.57;3.27;;;15.90;98.20;;;14.93;91.66;98003.81;4978925;28;20507;-73
2022/06/06 01:16:30;;;;;;;3.43;3.13;;;15.90;98.90;;;15.04;91.05;97991.22;4979108;28;21206;-73
2022/06/06 01:19:22;;;;;;;4.30;3.90;;;16.00;98.90;;;15.11;90.81;98000.06;4980420;28;20461;-72
2022/06/06 01:22:30;;;;;;;4.27;3.60;;;16.10;97.70;;;15.13;89.94;98003.38;4986906;28;21117;-73
2022/06/06 01:25:32;;;;;;;3.93;3.60;;;16.10;96.80;;;15.27;89.43;97993.81;4982533;28;20475;-73
2022/06/06 01:28:03;;;;;;;5.20;3.50;;;16.20;96.70;;;15.22;90.00;98007.31;5010787;28;20501;-73
2022/06/06 01:30:40;;;;;;;3.47;3.13;;;16.10;97.10;;;15.24;89.21;97998.91;4980929;28;20448;-73
2022/06/06 01:33:14;;;;;;;4.10;3.37;;;16.20;96.20;;;15.32;88.77;97994.97;5016530;28;20472;-72
2022/06/06 01:35:44;;;;;;;3.80;3.50;;;16.30;96.40;;;15.24;88.82;97997.03;5068809;28;20497;-73
2022/06/06 01:38:14;;;;;;;8.23;3.63;;;16.20;96.10;;;15.06;89.32;97983.63;4979128;28;20455;-73
2022/06/06 01:40:49;;;;;;;4.33;3.93;;;16.20;96.60;;;14.96;90.27;97987.84;4985703;28;20462;-74
2022/06/06 01:43:21;;;;;;;4.73;3.47;;;16.10;96.90;;;14.95;90.38;97982.63;4977253;28;20455;-74
2022/06/06 01:45:57;;;;;;;3.60;3.27;;;16.00;97.30;;;15.08;90.46;98000.53;4982711;28;20450;-73
2022/06/06 01:48:32;;;;;;;3.73;3.30;;;16.00;97.90;;;15.03;90.32;97995.84;4979495;28;20467;-75
2022/06/06 01:50:59;;;;;;;3.70;3.50;;;16.00;97.30;;;15.05;90.49;98006.47;4997522;28;20471;-74
2022/06/06 01:53:27;;;;;;;4.00;3.60;;;16.00;98.60;;;14.93;90.43;97988.31;4978793;28;20551;-74
2022/06/06 01:55:55;;;;;;;4.03;3.73;;;16.00;97.40;;;15.01;90.37;97987.94;4981276;28;20483;-73
2022/06/06 01:58:25;;;;;;;3.90;3.30;;;16.00;97.20;;;14.94;90.70;97990.00;4979767;28;20456;-73
2022/06/06 02:00:54;;;;;;;3.90;3.70;;;15.90;97.80;;;14.91;91.18;98003.25;4979765;28;20473;-73
2022/06/06 02:03:22;;;;;;;4.43;4.07;;;15.80;99.10;;;15.00;91.22;97989.00;4980447;28;20468;-73
2022/06/06 02:05:49;;;;;;;4.70;4.30;;;15.80;99.80;;;15.05;91.27;97995.59;4986705;28;20470;-74
2022/06/06 02:08:19;;;;;;;4.47;4.17;;;16.00;98.80;;;15.21;90.15;97994.78;4988028;28;20465;-71
2022/06/06 02:10:47;;;;;;;4.70;4.30;;;16.10;97.40;;;15.21;90.02;97994.78;4985721;28;20479;-72
2022/06/06 02:13:15;;;;;;;4.03;3.73;;;16.20;97.30;;;15.31;89.03;97999.56;4981761;28;20893;-71
2022/06/06 02:15:42;;;;;;;3.63;3.40;;;16.30;96.70;;;15.41;88.04;97999.75;4992327;28;20839;-73
2022/06/06 02:18:11;;;;;;;3.80;3.50;;;16.30;95.90;;;15.40;88.23;97997.28;4984719;28;20830;-74
2022/06/06 02:20:39;;;;;;;3.80;3.50;;;16.30;95.50;;;15.35;88.22;97994.47;4985192;28;20464;-72
2022/06/06 02:23:07;;;;;;;3.83;3.47;;;16.40;95.60;;;14.98;88.62;97946.78;4986002;28;20531;-73
2022/06/06 02:25:36;;;;;;;3.90;3.60;;;16.30;95.90;;;15.32;88.72;98000.41;4977148;28;20513;-71
2022/06/06 02:28:05;;;;;;;3.90;3.20;;;16.30;95.80;;;15.22;88.71;97988.25;4981293;28;20452;-71
2022/06/06 02:30:34;;;;;;;3.90;3.70;;;16.30;96.00;;;15.57;87.35;97998.09;4986573;28;20548;-71
2022/06/06 02:33:02;;;;;;;4.07;3.70;;;16.50;95.60;;;15.44;87.75;98001.16;4987121;28;20454;-71
2022/06/06 02:35:38;;;;;;;3.60;3.30;;;16.50;95.20;;;15.56;87.15;98001.91;4988259;28;20533;-71
2022/06/06 02:38:06;;;;;;;3.30;3.10;;;16.50;94.50;;;15.67;86.77;98002.03;4987415;28;20459;-72
2022/06/06 02:40:33;;;;;;;3.67;3.37;;;16.60;94.50;;;15.57;86.94;98003.56;4988157;28;20466;-73
2022/06/06 02:43:01;;;;;;;3.67;3.33;;;16.60;94.30;;;15.44;87.59;98003.88;4985922;28;21392;-72
2022/06/06 02:45:29;;;;;;;3.63;3.33;;;16.50;94.60;;;15.43;87.51;98003.03;4985946;28;20543;-72
2022/06/06 02:47:59;;;;;;;3.40;3.20;;;16.40;95.00;;;15.33;87.84;98002.91;4983050;28;20536;-72
2022/06/06 02:50:32;;;;;;;3.53;3.33;;;16.40;94.90;;;15.23;87.86;98008.97;4981261;28;21344;-72
2022/06/06 02:53:01;;;;;;;3.77;3.47;;;16.30;95.20;;;15.14;88.76;98005.03;4983900;28;20866;-72
2022/06/06 02:55:28;;;;;;;4.03;3.63;;;16.20;95.60;;;15.13;88.95;98015.06;4985477;28;20835;-72
2022/06/06 02:57:56;;;;;;;3.40;3.10;;;16.10;96.00;;;15.08;88.75;98012.25;4982958;28;20460;-72
2022/06/06 03:00:27;;;;;;;3.40;3.20;;;16.10;96.00;;;15.04;88.64;97996.66;4988195;28;20448;-72
2022/06/06 03:02:55;;;;;;;3.80;3.60;;;16.10;96.20;;;15.19;87.54;98013.25;4967607;28;20488;-72
2022/06/06 03:05:25;;;;;;;3.90;3.60;;;16.20;95.70;;;15.02;88.86;98019.50;4987541;28;21026;-72
2022/06/06 03:08:06;;;;;;;4.13;3.70;;;16.00;96.00;;;14.96;89.33;98022.38;4990877;28;20477;-73
2022/06/06 03:10:50;;;;;;;4.20;3.80;;;16.00;96.40;;;14.82;89.88;98019.13;4985330;28;20463;-72
2022/06/06 03:13:41;;;;;;;4.10;3.70;;;15.80;97.00;;;14.70;90.26;98017.25;4976363;28;20457;-72
2022/06/06 03:22:22;;;;;;;4.00;3.67;;;15.60;98.60;;;14.48;91.81;98018.97;5038423;28;20454;-72
2022/06/06 03:25:04;;;;;;;5.80;3.70;;;15.50;99.00;;;14.06;92.80;97963.81;4986767;28;20486;-72
2022/06/06 03:27:47;;;;;;;3.97;3.67;;;15.40;99.90;;;14.24;93.77;98033.44;4983448;28;20523;-72
2022/06/06 03:30:24;;;;;;;6.13;3.70;;;15.30;99.90;;;14.29;93.86;98038.16;5005577;28;20471;-72
2022/06/06 03:33:12;;;;;;;4.13;3.83;;;15.20;99.90;;;14.34;93.23;98040.16;5000342;28;20463;-72
2022/06/06 03:35:46;;;;;;;3.83;3.30;;;15.30;99.90;;;14.30;94.12;98042.53;5016410;28;20472;-73
2022/06/06 03:38:22;;;;;;;4.27;3.87;;;15.30;99.90;;;14.37;93.32;98045.97;4984230;28;20455;-72
2022/06/06 03:41:07;;;;;;;4.17;3.87;;;15.30;99.90;;;14.30;93.51;98046.09;4985126;28;20455;-72
2022/06/06 03:43:45;;;;;;;4.10;3.70;;;15.40;99.90;;;14.40;93.46;98047.34;4983677;28;20545;-73
2022/06/06 03:46:25;;;;;;;5.03;4.10;;;15.40;99.90;;;14.44;93.17;98052.06;4977974;28;20456;-72
2022/06/06 03:49:09;;;;;;;4.23;3.93;;;15.40;99.90;;;14.48;92.41;98057.88;5004644;28;20455;-72
2022/06/06 03:51:46;;;;;;;4.40;4.10;;;15.50;99.90;;;14.39;92.76;98059.28;5005939;28;20479;-73
2022/06/06 03:54:25;;;;;;;4.60;3.70;;;15.40;99.90;;;14.48;92.78;98054.31;5002200;28;20497;-73
2022/06/06 03:57:12;;;;;;;4.63;4.23;;;15.40;99.90;;;14.53;92.52;98060.69;4982087;28;20560;-73
2022/06/06 03:59:42;;;;;;;4.27;3.73;;;15.50;99.90;;;14.62;91.44;98073.91;4982918;28;20547;-72
2022/06/06 04:02:12;;;;;;;4.50;4.17;;;15.60;98.80;;;14.89;90.61;98076.13;4985453;28;20462;-72
2022/06/06 04:04:41;;;;;;;4.53;4.20;;;15.80;98.10;;;15.42;88.03;98076.81;5017382;28;20464;-72
2022/06/06 04:07:08;;;;;;;3.77;3.47;;;16.30;95.50;;;15.95;84.72;98079.31;4986139;28;20459;-71
2022/06/06 04:09:37;;;;;;;4.10;3.67;;;17.00;92.30;;;16.63;81.54;98079.16;4987500;28;20517;-72
2022/06/06 04:12:41;;;;;;;4.07;3.77;;;17.60;90.70;;;16.84;79.60;98077.53;4984069;28;20463;-72
2022/06/06 04:15:21;;;;;;;4.90;3.90;;;18.10;88.70;;;17.09;77.66;98072.63;4979650;28;20468;-72
2022/06/06 04:18:11;;;;;;;4.13;3.73;;;18.60;86.60;;;17.40;76.22;98081.13;4979348;28;20452;-73
2022/06/06 04:20:46;;;;;;;3.97;3.60;;;18.80;86.10;;;17.63;75.20;98073.66;4986082;28;20466;-72
2022/06/06 04:23:31;;;;;;;4.20;3.77;;;19.20;84.80;;;17.54;75.01;98076.88;4979397;28;20504;-71
2022/06/06 04:26:12;;;;;;;4.37;3.90;;;19.10;84.70;;;18.14;72.76;98080.66;4972299;28;20468;-73
2022/06/06 04:28:54;;;;;;;3.83;3.50;;;19.20;84.70;;;18.28;72.04;98079.09;4985420;28;20466;-74
2022/06/06 04:31:35;;;;;;;3.80;3.50;;;19.60;83.50;;;18.58;70.99;98080.34;4985539;28;20513;-74
2022/06/06 04:34:15;;;;;;;3.83;3.53;;;19.80;83.20;;;18.26;71.74;98087.56;4984706;28;20450;-73
2022/06/06 04:36:52;;;;;;;4.07;3.23;;;19.80;82.70;;;18.26;71.76;98086.72;4986511;28;20479;-72
2022/06/06 04:39:26;;;;;;;5.43;3.20;;;19.60;83.10;;;18.31;71.81;98089.50;4989980;28;20453;-73
2022/06/06 04:41:59;;;;;;;3.67;3.03;;;19.60;83.00;;;18.90;69.26;98093.06;4992460;28;20463;-73
2022/06/06 04:44:37;;;;;;;3.67;3.37;;;20.10;82.10;;;18.83;69.67;98107.00;4995644;28;20539;-73
2022/06/06 04:47:11;;;;;;;4.30;3.90;;;20.40;81.50;;;19.00;68.77;98105.16;4981832;28;20457;-73
2022/06/06 04:49:40;;;;;;;3.63;3.23;;;20.50;81.10;;;18.80;69.45;98099.31;4979028;28;20463;-74
2022/06/06 04:52:08;;;;;;;5.07;4.10;;;20.50;81.00;;;18.93;68.89;98106.22;4984261;28;20464;-74
2022/06/06 04:54:40;;;;;;;5.10;4.00;;;20.60;80.60;;;18.53;70.54;98107.66;4986635;28;20457;-74
2022/06/06 04:57:08;;;;;;;6.67;4.30;;;20.20;81.20;;;18.98;69.00;98106.22;4992548;28;20468;-75
2022/06/06 04:59:40;;;;;;;5.00;3.70;;;20.40;81.20;;;19.84;65.23;98112.44;4985673;28;20449;-75
2022/06/06 05:02:07;;;;;;;4.87;4.20;;;21.00;79.80;;;19.46;66.61;98105.25;4986175;28;20479;-74
2022/06/06 05:04:34;;;;;;;4.70;4.40;;;20.60;80.30;;;18.38;69.91;98098.28;4985134;28;20467;-74
2022/06/06 05:07:37;;;;;;;5.07;4.50;;;19.90;81.10;;;17.39;74.61;98109.53;4985449;28;20923;-73
2022/06/06 05:10:29;;;;;;;5.20;4.67;;;18.90;83.30;;;17.18;76.16;98105.75;4989313;28;21101;-74
2022/06/06 05:14:06;;;;;;;5.40;5.00;;;18.30;85.30;;;17.39;75.92;98114.97;4981798;28;21318;-72
2022/06/06 05:16:54;;;;;;;5.60;5.20;;;18.10;86.40;;;17.70;74.05;98101.59;4945115;28;21056;-72
2022/06/06 05:19:43;;;;;;;6.60;5.03;;;18.50;85.80;;;17.30;76.12;98111.88;4975889;28;20458;-72
2022/06/06 05:22:31;;;;;;;4.57;4.27;;;18.50;85.70;;;17.86;73.75;98109.94;4982530;28;20539;-71
2022/06/06 05:25:17;;;;;;;6.30;5.10;;;18.60;85.60;;;17.84;73.84;98130.16;4981580;28;20577;-71
2022/06/06 05:28:22;;;;;;;5.50;5.10;;;18.70;85.20;;;18.33;72.39;98122.88;4996431;28;20456;-72
2022/06/06 05:30:57;;;;;;;5.60;5.10;;;19.10;84.80;;;18.04;72.49;98112.28;4977178;28;20469;-73
2022/06/06 05:33:35;;;;;;;5.83;4.77;;;19.40;83.90;;;18.56;71.33;98120.81;4980599;28;20504;-71
2022/06/06 05:36:33;;;;;;;5.50;4.60;;;19.50;83.80;;;18.15;72.82;98117.84;4976445;28;20472;-73
2022/06/06 05:39:27;;;;;;;6.47;5.87;;;19.30;83.80;;;18.12;73.14;98124.63;4980920;28;20467;-73
2022/06/06 05:42:18;;;;;;;7.10;5.80;;;19.20;84.30;;;18.67;70.85;98130.72;5004998;28;20463;-72
2022/06/06 05:45:00;;;;;;;5.17;4.77;;;19.40;84.00;;;18.50;71.41;98124.59;4982354;28;21047;-72
2022/06/06 05:47:36;;;;;;;6.47;5.97;;;19.50;83.90;;;19.02;70.43;98119.38;4986445;28;20462;-72
2022/06/06 05:50:29;;;;;;;6.17;5.77;;;19.70;84.00;;;19.88;66.93;98119.84;4987880;28;21000;-72
2022/06/06 05:53:22;;;;;;;6.77;6.13;;;20.90;81.90;;;21.00;63.51;98124.59;4985848;28;20464;-72
2022/06/06 05:56:13;;;;;;;7.23;6.63;;;22.00;79.90;;;19.98;65.02;98119.03;4987866;28;20482;-73
2022/06/06 05:59:06;;;;;;;6.87;6.00;;;21.80;78.40;;;19.11;68.71;98126.84;4987771;28;20835;-73
2022/06/06 06:01:55;;;;;;;7.73;7.13;;;20.70;80.40;;;19.66;67.41;98111.88;4984496;28;20476;-72
2022/06/06 06:04:48;;;;;;;7.43;6.83;;;20.60;81.30;;;20.08;65.52;98118.22;5007931;28;20460;-73
2022/06/06 06:07:27;;;;;;;7.20;6.60;;;21.20;79.80;;;20.84;63.03;98110.09;4981154;28;20455;-70
2022/06/06 06:10:09;;;;;;;8.13;7.43;;;21.90;78.50;;;20.54;63.39;98114.53;4989124;28;20457;-71
2022/06/06 06:13:17;;;;;;;7.07;6.27;;;22.00;77.50;;;20.08;65.04;98118.22;4991838;28;20515;-72
2022/06/06 06:15:45;;;;;;;7.27;6.77;;;21.60;78.20;;;19.91;65.93;98115.72;4985031;28;20480;-72
2022/06/06 06:18:20;;;;;;;8.20;7.50;;;21.20;78.70;;;19.50;67.59;98111.88;4981457;28;21029;-73
2022/06/06 06:20:54;;;;;;;7.23;6.63;;;20.90;79.50;;;19.58;67.50;98128.84;4986569;28;20470;-71
2022/06/06 06:23:28;;;;;;;7.40;6.80;;;20.60;80.40;;;19.19;68.40;98120.03;4976910;28;22927;-72
2022/06/06 06:25:56;;;;;;;7.50;6.90;;;20.20;80.80;;;19.16;69.15;98130.69;4995231;28;20587;-71
2022/06/06 06:28:25;;;;;;;10.57;6.70;;;20.10;81.50;;;19.34;69.43;98132.09;4991673;28;20461;-73
2022/06/06 06:31:11;;;;;;;7.73;7.03;;;20.10;82.00;;;19.33;68.48;98125.78;5000922;28;20504;-72
2022/06/06 06:33:59;;;;;;;7.00;6.50;;;20.20;81.70;;;19.30;68.69;98133.72;4985681;28;20514;-74
2022/06/06 06:36:44;;;;;;;7.10;6.50;;;20.20;81.80;;;18.66;71.21;98134.53;4982656;28;20482;-73
2022/06/06 06:39:37;;;;;;;10.23;5.80;;;19.90;82.20;;;18.98;69.49;98133.59;4984679;28;20457;-76
2022/06/06 06:42:28;;;;;;;7.40;6.80;;;19.90;82.20;;;19.23;69.44;98143.03;4979942;28;20454;-74
2022/06/06 06:45:03;;;;;;;6.50;6.00;;;20.00;82.60;;;19.27;68.82;98139.75;4978931;28;20479;-75
2022/06/06 06:47:33;;;;;;;6.03;5.63;;;20.10;82.00;;;19.32;68.32;98140.59;4978894;28;20467;-74
2022/06/06 06:50:12;;;;;;;6.97;6.40;;;20.20;81.60;;;19.31;69.17;98135.38;4977347;28;20466;-75
2022/06/06 06:52:58;;;;;;;7.03;6.27;;;20.20;82.00;;;18.96;69.63;98145.91;4992369;28;21016;-74
2022/06/06 06:55:39;;;;;;;6.37;5.87;;;20.00;81.80;;;19.63;67.67;98145.28;4979273;28;21045;-75
2022/06/06 06:58:22;;;;;;;7.40;6.80;;;20.30;81.80;;;19.67;67.23;98147.22;4980161;28;20470;-75
2022/06/06 07:00:55;;;;;;;7.13;6.17;;;20.40;81.30;;;19.57;67.31;98141.75;5006397;28;20463;-75
2022/06/06 07:09:57;;;;;;;6.20;5.70;;;20.70;80.40;;;20.21;65.21;98128.63;4965654;28;20473;-75
2022/06/06 07:12:49;;;;;;;6.40;5.80;;;21.00;80.20;;;20.18;64.83;98131.91;4988601;28;21031;-74
2022/06/06 07:15:29;;;;;;;7.07;6.37;;;21.20;79.50;;;20.25;64.94;98126.16;4999928;28;20828;-75
2022/06/06 07:18:01;;;;;;;9.00;5.60;;;21.20;79.70;;;20.55;64.41;98131.84;4977568;28;21741;-74
2022/06/06 07:20:29;;;;;;;6.93;6.33;;;21.30;79.60;;;21.01;62.85;98145.44;5008807;28;20459;-73
2022/06/06 07:23:03;;;;;;;6.80;6.07;;;21.70;79.10;;;21.23;61.61;98141.50;4976056;28;20474;-74
2022/06/06 07:25:38;;;;;;;8.33;6.60;;;22.00;78.40;;;21.43;61.44;98135.06;4978747;28;20898;-76
2022/06/06 07:28:11;;;;;;;6.07;5.53;;;22.10;77.90;;;21.83;59.44;98115.84;4980261;28;20556;-74
2022/06/06 07:30:44;;;;;;;6.80;6.30;;;22.60;77.00;;;21.54;60.16;98129.50;4994865;28;20547;-74
2022/06/06 07:33:50;;;;;;;6.40;5.80;;;22.50;76.30;;;21.69;60.04;98121.19;4971826;28;20459;-75
2022/06/06 07:36:31;;;;;;;7.20;6.60;;;22.40;76.60;;;21.74;59.07;98134.88;4969766;28;20653;-75
2022/06/06 07:39:09;;;;;;;6.47;5.87;;;22.70;75.20;;;22.16;58.84;98129.06;4977393;28;20464;-75
2022/06/06 07:41:52;;;;;;;7.40;6.70;;;23.00;75.50;;;21.81;59.43;98114.50;4976675;28;20467;-73
2022/06/06 07:45:00;;;;;;;5.90;5.30;;;23.00;75.00;;;22.05;59.15;98128.34;5000449;28;20465;-74
2022/06/06 07:47:58;;;;;;;5.90;5.40;;;22.90;75.20;;;22.19;58.36;98128.47;4981331;28;20464;-74
2022/06/06 07:50:32;;;;;;;6.87;6.33;;;22.90;74.70;;;21.66;59.61;98116.25;4974967;28;20475;-74
2022/06/06 07:53:06;;;;;;;6.30;5.80;;;22.80;74.60;;;21.16;61.36;98125.34;4981674;28;20454;-73
2022/06/06 07:55:41;;;;;;;7.77;6.53;;;22.30;75.20;;;20.91;61.97;98080.41;4974646;28;20462;-74
2022/06/06 07:58:16;;;;;;;7.00;6.40;;;22.20;76.00;;;20.97;62.43;98121.56;4984715;28;20468;-73
2022/06/06 08:00:50;;;;;;;6.73;6.13;;;22.00;76.30;;;21.01;61.81;98108.94;4991728;28;20463;-77
2022/06/06 08:03:20;;;;;;;7.10;6.30;;;21.80;76.20;;;21.71;60.25;98102.47;4986037;28;20474;-73
2022/06/06 08:06:25;;;;;;;6.97;6.30;;;22.30;76.30;;;21.46;60.05;98107.03;4989197;28;20552;-72
2022/06/06 08:09:21;;;;;;;7.07;6.10;;;22.40;75.10;;;21.58;59.02;98108.59;4982945;28;20464;-75
2022/06/06 08:12:20;;;;;;;6.80;6.33;;;22.40;74.50;;;20.86;60.96;98109.81;4981969;28;20557;-72
2022/06/06 08:15:05;;;;;;;6.70;6.20;;;22.00;74.40;;;20.94;61.14;98104.56;4975246;28;20550;-74
2022/06/06 08:17:56;;;;;;;8.10;5.93;;;21.90;75.50;;;20.87;60.72;98106.81;4990534;28;20473;-74
2022/06/06 08:20:30;;;;;;;6.83;6.23;;;21.80;75.10;;;20.42;62.00;98105.81;5023525;27;20449;-73
2022/06/06 08:23:02;;;;;;;6.13;5.50;;;21.50;74.90;;;20.78;61.83;98105.69;4977301;28;20462;-74
2022/06/06 08:25:30;;;;;;;5.60;5.20;;;21.50;75.90;;;20.88;60.55;98096.63;4976297;28;20442;-74
2022/06/06 08:28:00;;;;;;;7.23;6.57;;;21.60;75.10;;;21.20;59.90;98098.94;4982713;28;20462;-73
2022/06/06 08:30:27;;;;;;;5.70;5.30;;;21.90;74.80;;;21.35;60.08;98105.44;5014009;28;20479;-75
2022/06/06 08:32:55;;;;;;;5.90;5.40;;;22.10;75.10;;;21.21;59.78;98105.25;4990961;28;20580;-74
2022/06/06 08:35:31;;;;;;;6.10;5.70;;;22.10;74.30;;;21.44;57.75;98100.97;4977025;28;20473;-75
2022/06/06 08:38:34;;;;;;;8.53;5.83;;;22.20;73.10;;;21.11;58.37;98105.31;4978202;28;20491;-74
2022/06/06 08:42:05;;;;;;;5.50;5.00;;;22.10;72.40;;;21.67;56.62;98106.06;4981359;28;21247;-74
2022/06/06 08:44:55;;;;;;;5.50;5.00;;;22.20;72.60;;;21.90;55.04;98102.59;4981701;28;20464;-74
2022/06/06 08:47:34;;;;;;;5.40;4.27;;;22.60;70.90;;;22.31;53.68;98098.63;4974902;28;20461;-75
2022/06/06 08:50:47;;;;;;;5.60;4.80;;;23.00;69.90;;;22.93;52.52;98103.47;4984794;28;20491;-75
2022/06/06 08:53:56;;;;;;;4.30;3.90;;;23.50;69.20;;;22.23;53.00;98096.53;5006944;28;20463;-74
2022/06/06 08:57:02;;;;;;;4.63;4.20;;;23.40;67.40;;;22.62;53.06;98086.50;4976186;28;20625;-73
2022/06/06 09:00:20;;;;;;;5.77;3.97;;;23.40;68.30;;;22.55;52.03;98089.63;5003865;28;20524;-73
2022/06/06 09:03:51;;;;;;;5.10;4.20;;;23.60;67.80;;;22.18;53.88;98088.31;4980405;28;20469;-74
2022/06/06 09:07:28;;;;;;;4.40;4.10;;;23.30;68.20;;;22.10;53.67;98086.22;4925234;28;20481;-72
2022/06/06 09:10:46;;;;;;;4.70;4.13;;;22.90;67.30;;;22.54;51.98;98074.22;4927483;28;20454;-75
2022/06/06 09:14:15;;;;;;;4.10;3.70;;;23.30;66.80;;;22.32;51.85;98081.00;4989604;28;20475;-74
2022/06/06 09:17:30;;;;;;;4.30;3.90;;;23.30;66.50;;;22.28;52.80;98068.13;4973973;28;20546;-73
2022/06/06 09:20:51;;;;;;;5.30;3.53;;;23.10;65.90;;;22.64;51.53;98079.59;4995491;28;20473;-74
2022/06/06 09:23:53;;;;;;;4.43;4.03;;;23.30;65.90;;;22.99;51.43;98067.63;4984698;28;20473;-73
2022/06/06 09:26:32;;;;;;;6.13;4.40;;;23.70;66.70;;;23.00;49.90;98075.56;4985315;28;20566;-74
2022/06/06 09:29:59;;;;;;;4.93;4.53;;;23.80;64.70;;;23.04;49.83;98075.78;4995447;28;20471;-73
2022/06/06 09:33:00;;;;;;;4.80;4.40;;;23.90;64.80;;;22.90;51.48;98068.25;4988007;28;20535;-75
2022/06/06 09:36:19;;;;;;;4.53;4.13;;;23.70;65.70;;;23.32;49.77;98073.25;4981333;28;20999;-74
2022/06/06 09:39:04;;;;;;;4.00;3.67;;;24.00;65.00;;;23.01;49.33;98074.44;4981674;28;20536;-76
2022/06/06 09:41:41;;;;;;;4.13;3.70;;;23.90;63.70;;;22.58;50.36;98086.28;4976757;28;20999;-77
2022/06/06 09:44:43;;;;;;;4.20;3.80;;;23.50;63.80;;;21.63;52.85;98035.16;4977243;28;21056;-80
2022/06/06 09:47:47;;;;;;;4.53;4.13;;;22.90;65.10;;;21.98;53.01;98076.41;5047196;28;20508;-80
2022/06/06 09:51:04;;;;;;;3.70;3.43;;;22.70;66.10;;;22.02;53.43;98080.22;4986678;28;20505;-81
2022/06/06 10:01:03;;;;;;;4.10;3.80;;;22.50;66.10;;;21.63;54.58;98073.63;4978818;28;20829;-77
2022/06/06 10:04:25;;;;;;;4.67;4.27;;;22.40;66.90;;;21.62;54.67;98076.69;4979393;28;21122;-79
2022/06/06 10:07:30;;;;;;;4.00;3.70;;;22.30;67.00;;;21.50;54.73;98069.63;4975780;28;20455;-79
2022/06/06 10:10:39;;;;;;;4.27;3.97;;;22.40;66.70;;;21.50;55.36;98069.63;4988199;28;21836;-78
2022/06/06 10:13:24;;;;;;;4.17;3.80;;;22.20;67.50;;;21.82;55.11;98063.91;4995923;28;20453;-75
2022/06/06 10:16:13;;;;;;;4.60;4.30;;;22.40;67.70;;;21.90;52.95;98066.00;4984670;28;20473;-81
2022/06/06 10:19:07;;;;;;;4.40;4.00;;;22.60;66.30;;;21.71;53.42;98066.72;4979946;28;20479;-78
2022/06/06 10:22:08;;;;;;;4.67;4.37;;;22.50;66.20;;;21.75;53.30;98062.28;4982832;28;20466;-77
2022/06/06 10:25:17;;;;;;;5.67;4.37;;;22.50;65.90;;;21.61;54.15;98064.03;4991829;28;20500;-81
2022/06/06 10:28:01;;;;;;;5.13;4.53;;;22.40;65.70;;;21.55;55.53;98059.69;4984751;28;20952;-75
2022/06/06 10:30:46;;;;;;;4.83;4.03;;;22.30;67.30;;;22.11;53.20;98050.13;4992860;28;21248;-77
2022/06/06 10:34:07;;;;;;;4.80;4.43;;;22.70;66.70;;;22.12;54.05;98024.28;4986622;28;20458;-79
2022/06/06 10:37:22;;;;;;;5.00;4.23;;;22.90;67.40;;;22.76;52.35;98059.91;4942580;28;20469;-78
2022/06/06 10:40:09;;;;;;;4.13;3.80;;;23.30;66.40;;;22.82;50.10;98052.38;4943260;28;20695;-80
2022/06/06 10:43:12;;;;;;;4.20;3.90;;;23.50;64.20;;;22.74;51.10;98044.78;4988688;28;20467;-77
2022/06/06 10:45:48;;;;;;;3.33;3.10;;;23.50;64.80;;;23.17;47.10;98053.03;5022302;28;20489;-79
2022/06/06 10:48:49;;;;;;;3.73;2.90;;;23.70;61.80;;;23.41;45.64;98038.34;4982693;28;20470;-77
2022/06/06 10:52:05;;;;;;;2.70;2.50;;;24.00;60.90;;;23.59;44.67;98020.16;4983475;28;20463;-76
2022/06/06 10:55:16;;;;;;;3.20;2.60;;;24.30;59.30;;;23.79;44.66;98037.47;5010713;28;21078;-76
2022/06/06 10:58:47;;;;;;;3.10;2.47;;;24.50;59.50;;;23.89;44.53;98036.47;4984936;28;20564;-78
2022/06/06 11:02:11;;;;;;;3.07;2.87;;;24.60;59.20;;;23.79;44.77;98031.13;5003266;28;20869;-79
2022/06/06 11:05:25;;;;;;;3.53;2.83;;;24.50;58.50;;;24.46;43.74;98018.88;4987043;28;20457;-76
2022/06/06 11:08:27;;;;;;;3.10;2.90;;;25.10;58.30;;;23.85;44.88;98025.22;4982233;28;20465;-78
2022/06/06 11:11:49;;;;;;;2.73;2.53;;;24.80;58.10;;;23.66;45.07;98013.41;4986820;28;20463;-85
2022/06/06 11:14:25;;;;;;;3.40;3.10;;;24.60;58.20;;;23.75;45.31;98012.44;5001375;28;20460;-80
2022/06/06 11:17:45;;;;;;;3.90;2.93;;;24.50;58.50;;;23.88;45.01;98018.28;4986071;28;20495;-80
2022/06/06 11:20:52;;;;;;;4.40;3.00;;;24.70;58.70;;;23.51;45.17;98006.22;4932687;28;21066;-72
2022/06/06 11:23:25;;;;;;;3.40;3.10;;;24.50;57.90;;;23.15;45.94;97994.63;4982542;28;20486;-77
2022/06/06 11:26:21;;;;;;;2.93;2.73;;;24.10;58.30;;;23.44;45.31;97998.34;4980884;28;20977;-78
2022/06/06 11:29:14;;;;;;;4.03;3.20;;;24.20;58.40;;;23.39;46.81;97987.41;5002380;28;20467;-79
2022/06/06 11:31:55;;;;;;;4.00;3.70;;;24.20;59.30;;;23.86;46.54;98001.22;5000503;28;21040;-76
2022/06/06 11:35:22;;;;;;;3.73;3.37;;;24.50;59.80;;;23.71;45.29;98000.34;4976901;28;20477;-76
2022/06/06 11:38:41;;;;;;;3.23;3.03;;;24.60;58.40;;;23.84;46.32;97997.94;4974988;28;20485;-75
2022/06/06 11:41:25;;;;;;;3.57;3.20;;;24.50;59.00;;;24.18;43.75;97996.78;5028172;28;20469;-77
2022/06/06 11:44:32;;;;;;;2.93;2.73;;;24.80;57.40;;;24.02;44.59;97983.28;4991647;28;20971;-77
2022/06/06 11:47:27;;;;;;;2.83;2.63;;;25.00;57.50;;;24.43;43.48;97987.19;4988462;28;20509;-78
2022/06/06 11:50:38;;;;;;;3.13;2.90;;;25.10;57.40;;;24.07;43.45;97989.84;5003533;28;20819;-79
2022/06/06 11:53:59;;;;;;;3.13;2.77;;;25.00;56.90;;;23.52;45.50;97985.81;4967420;28;20479;-80
2022/06/06 11:57:14;;;;;;;2.90;2.60;;;24.50;57.50;;;23.26;45.25;97970.53;4976093;28;20449;-80